Time;durP1;ratioP1;P1;durP2;ratioP2;P2;SDS_P1;SDS_P2;PMS_P1;PMS_P2;Temp;Humidity;BMP_temperature;BMP_pressure;BME280_temperature;BME280_humidity;BME280_pressure;Samples;Min_cycle;Max_cycle;Signal;HPM_P1;HPM_P2
2021/08/03 00:00:09;;;;;;;3.25;3.15;;;20.20;57.80;;;;;;5016377;28;20390;-85
2021/08/03 00:02:35;;;;;;;3.80;3.55;;;20.20;57.90;;;;;;5029844;28;20038;-84
2021/08/03 00:05:01;;;;;;;3.75;3.53;;;20.20;57.90;;;;;;5035365;28;20033;-83
2021/08/03 00:07:27;;;;;;;3.50;3.40;;;20.20;57.90;;;;;;5033683;28;20042;-84
2021/08/03 00:09:54;;;;;;;3.65;3.45;;;20.20;58.00;;;;;;5033425;28;20029;-85
2021/08/03 00:12:21;;;;;;;3.50;3.30;;;20.20;58.00;;;;;;5033579;28;20029;-84
2021/08/03 00:14:50;;;;;;;3.42;3.28;;;20.20;58.10;;;;;;5031494;28;20025;-84
2021/08/03 00:17:23;;;;;;;3.40;3.30;;;20.20;58.00;;;;;;5033430;28;20041;-84
2021/08/03 00:19:50;;;;;;;3.35;3.25;;;20.20;58.10;;;;;;5049053;28;20040;-86
2021/08/03 00:22:16;;;;;;;3.13;3.03;;;20.20;58.10;;;;;;5033029;28;20025;-85
2021/08/03 00:24:42;;;;;;;3.00;2.90;;;20.10;58.10;;;;;;5035921;28;20037;-84
2021/08/03 00:27:08;;;;;;;3.28;3.10;;;20.10;58.20;;;;;;5018399;28;20040;-84
2021/08/03 00:29:37;;;;;;;3.50;3.30;;;20.10;58.20;;;;;;5034000;28;20034;-85
2021/08/03 00:32:04;;;;;;;3.28;3.17;;;20.10;58.30;;;;;;5038537;28;20049;-85
2021/08/03 00:34:30;;;;;;;3.00;2.90;;;20.10;58.30;;;;;;5038424;28;20025;-85
2021/08/03 00:36:56;;;;;;;3.00;2.90;;;20.10;58.40;;;;;;5037009;28;20036;-84
2021/08/03 00:39:23;;;;;;;3.17;3.08;;;20.00;58.40;;;;;;5020910;28;20051;-85
2021/08/03 00:41:56;;;;;;;3.22;3.13;;;20.00;58.50;;;;;;5033735;28;20030;-84
2021/08/03 00:44:44;;;;;;;3.33;3.13;;;20.00;58.50;;;;;;5036010;28;20041;-84
2021/08/03 00:47:11;;;;;;;3.17;3.08;;;20.00;58.60;;;;;;5066133;28;20402;-83
2021/08/03 00:49:37;;;;;;;3.17;3.08;;;20.00;58.60;;;;;;5051985;28;20053;-84
2021/08/03 00:52:04;;;;;;;3.28;3.15;;;19.90;58.60;;;;;;5037702;28;20033;-84
2021/08/03 00:54:30;;;;;;;2.90;2.80;;;19.90;58.60;;;;;;5038060;28;20040;-84
2021/08/03 00:56:57;;;;;;;3.08;2.97;;;19.90;58.60;;;;;;5018436;28;20022;-85
2021/08/03 00:59:23;;;;;;;3.30;3.08;;;19.90;59.30;;;;;;5034441;28;20030;-84
2021/08/03 01:01:49;;;;;;;2.92;2.83;;;19.90;58.70;;;;;;5035998;28;20034;-86
2021/08/03 01:04:17;;;;;;;2.92;2.83;;;19.90;58.70;;;;;;5019936;28;20413;-85
2021/08/03 01:06:52;;;;;;;2.70;2.60;;;19.90;58.80;;;;;;5035646;28;20038;-84
2021/08/03 01:09:21;;;;;;;2.88;2.78;;;19.90;58.80;;;;;;5037812;28;20390;-84
2021/08/03 01:12:01;;;;;;;11.52;3.20;;;19.90;58.90;;;;;;5016978;28;20044;-85
2021/08/03 01:14:35;;;;;;;3.45;3.25;;;19.80;58.90;;;;;;5016908;28;20048;-84
2021/08/03 01:17:25;;;;;;;3.60;3.45;;;19.80;58.90;;;;;;5037899;28;20037;-86
2021/08/03 01:20:16;;;;;;;3.72;3.55;;;19.80;59.00;;;;;;5031629;28;20053;-84
2021/08/03 01:23:20;;;;;;;3.88;3.70;;;19.80;59.00;;;;;;5020313;28;20053;-85
2021/08/03 01:26:08;;;;;;;4.47;4.28;;;19.80;59.10;;;;;;5039070;28;20056;-84
2021/08/03 01:28:47;;;;;;;4.35;4.13;;;19.80;59.10;;;;;;5035116;28;20478;-84
2021/08/03 01:31:20;;;;;;;4.32;4.05;;;19.80;59.10;;;;;;5020533;28;20048;-84
2021/08/03 01:33:48;;;;;;;3.95;3.75;;;19.80;59.20;;;;;;5020236;28;20045;-85
2021/08/03 01:36:16;;;;;;;3.97;3.78;;;19.70;59.20;;;;;;5036026;28;20052;-84
2021/08/03 01:38:42;;;;;;;4.20;3.97;;;19.80;59.30;;;;;;5033214;28;20033;-85
2021/08/03 01:41:11;;;;;;;3.60;3.42;;;19.70;59.30;;;;;;5037071;28;20042;-84
2021/08/03 01:43:37;;;;;;;3.60;3.40;;;19.70;59.40;;;;;;5036328;28;20041;-84
2021/08/03 01:46:04;;;;;;;3.40;3.28;;;19.70;59.40;;;;;;5016866;28;20033;-84
2021/08/03 01:48:30;;;;;;;3.55;3.38;;;19.70;59.50;;;;;;5018805;28;20041;-85
2021/08/03 01:50:56;;;;;;;3.65;3.47;;;19.60;59.50;;;;;;5017206;28;20386;-85
2021/08/03 01:53:23;;;;;;;3.40;3.28;;;19.70;59.60;;;;;;5035064;28;20038;-85
2021/08/03 01:55:50;;;;;;;3.45;3.28;;;19.70;59.60;;;;;;5051427;28;20475;-85
2021/08/03 01:58:16;;;;;;;3.50;3.33;;;19.70;59.70;;;;;;5019678;28;20029;-84
2021/08/03 02:00:43;;;;;;;3.20;3.10;;;19.70;59.70;;;;;;5032543;28;20037;-83
2021/08/03 02:03:12;;;;;;;3.30;3.20;;;19.60;59.70;;;;;;5014837;28;20037;-85
2021/08/03 02:05:39;;;;;;;3.15;3.05;;;19.60;59.70;;;;;;4990253;28;20029;-85
2021/08/03 02:08:06;;;;;;;3.83;3.60;;;19.60;59.80;;;;;;5032564;28;20037;-84
2021/08/03 02:10:32;;;;;;;3.30;3.13;;;19.60;59.80;;;;;;5027863;28;20029;-84
2021/08/03 02:12:58;;;;;;;3.33;3.20;;;19.60;59.90;;;;;;5027923;28;20029;-84
2021/08/03 02:15:24;;;;;;;3.60;3.40;;;19.60;60.00;;;;;;5027062;28;20585;-85
2021/08/03 02:17:50;;;;;;;3.30;3.13;;;19.60;60.00;;;;;;5027936;28;20041;-84
2021/08/03 02:20:16;;;;;;;3.33;3.22;;;19.60;60.00;;;;;;5029380;28;20044;-85
2021/08/03 02:22:44;;;;;;;3.22;3.13;;;19.60;60.10;;;;;;5028927;28;20032;-85
2021/08/03 02:25:11;;;;;;;3.22;3.03;;;19.50;60.10;;;;;;5045375;28;20402;-83
2021/08/03 02:27:38;;;;;;;3.42;3.22;;;19.50;60.20;;;;;;5027418;28;20471;-84
2021/08/03 02:30:05;;;;;;;3.67;3.47;;;19.50;60.20;;;;;;5026553;28;20045;-86
2021/08/03 02:32:43;;;;;;;3.15;3.05;;;19.50;60.30;;;;;;5027676;28;20033;-85
2021/08/03 02:35:12;;;;;;;3.40;3.20;;;19.50;60.30;;;;;;5026614;28;20041;-85
2021/08/03 02:37:39;;;;;;;3.03;2.92;;;19.50;60.40;;;;;;5020065;28;20038;-85
2021/08/03 02:40:06;;;;;;;3.22;3.13;;;19.40;60.40;;;;;;5045860;28;20434;-84
2021/08/03 02:42:32;;;;;;;3.00;2.90;;;19.40;61.30;;;;;;5018224;28;20068;-84
2021/08/03 02:45:01;;;;;;;3.08;2.97;;;19.40;60.60;;;;;;5016697;28;20037;-84
2021/08/03 02:47:30;;;;;;;2.70;2.60;;;19.40;60.60;;;;;;5030294;28;20045;-85
2021/08/03 02:50:05;;;;;;;3.13;3.03;;;19.40;60.60;;;;;;5036780;28;20030;-85
2021/08/03 02:52:34;;;;;;;3.00;2.90;;;19.40;60.70;;;;;;5033862;28;20037;-84
2021/08/03 02:55:22;;;;;;;3.10;3.00;;;19.40;60.80;;;;;;5036017;28;20367;-85
2021/08/03 02:57:55;;;;;;;3.10;3.00;;;19.40;60.80;;;;;;5020062;28;20037;-85
2021/08/03 03:00:21;;;;;;;3.40;3.20;;;19.30;60.80;;;;;;5017331;28;20037;-84
2021/08/03 03:02:47;;;;;;;3.17;3.08;;;19.30;60.80;;;;;;5029553;28;20033;-85
2021/08/03 03:05:14;;;;;;;3.10;3.00;;;19.30;61.00;;;;;;5035749;28;20060;-85
2021/08/03 03:07:42;;;;;;;3.83;3.63;;;19.30;61.10;;;;;;5035207;28;20026;-85
2021/08/03 03:10:15;;;;;;;3.20;3.10;;;19.20;61.10;;;;;;5017514;28;20048;-84
2021/08/03 03:12:43;;;;;;;2.88;2.78;;;19.20;61.10;;;;;;5034377;28;20492;-86
2021/08/03 03:15:09;;;;;;;3.15;3.03;;;19.20;61.20;;;;;;5015772;28;20035;-84
2021/08/03 03:17:35;;;;;;;2.80;2.70;;;19.20;61.20;;;;;;5012829;28;20072;-85
2021/08/03 03:20:03;;;;;;;2.83;2.72;;;19.20;62.00;;;;;;5037120;28;20426;-84
2021/08/03 03:22:29;;;;;;;3.10;3.00;;;19.20;61.20;;;;;;5017792;28;20386;-84
2021/08/03 03:24:56;;;;;;;3.50;3.30;;;19.20;61.20;;;;;;5034097;28;20048;-85
2021/08/03 03:27:22;;;;;;;3.05;2.95;;;19.20;61.20;;;;;;5034033;28;20025;-85
2021/08/03 03:29:48;;;;;;;3.33;3.13;;;19.20;61.20;;;;;;4998116;28;20053;-84
2021/08/03 03:32:14;;;;;;;2.85;2.75;;;19.20;61.20;;;;;;5034393;28;20371;-84
2021/08/03 03:34:40;;;;;;;3.03;2.92;;;19.20;61.30;;;;;;5034589;28;20180;-85
2021/08/03 03:37:06;;;;;;;3.45;2.92;;;19.20;61.30;;;;;;5033422;28;20041;-85
2021/08/03 03:39:36;;;;;;;3.05;2.85;;;19.20;61.30;;;;;;5035131;28;20038;-85
2021/08/03 03:42:04;;;;;;;3.13;2.97;;;19.20;61.40;;;;;;5015481;28;20021;-85
2021/08/03 03:44:31;;;;;;;2.67;2.58;;;19.20;61.40;;;;;;5013666;28;20062;-84
2021/08/03 03:47:20;;;;;;;3.03;2.83;;;19.20;61.40;;;;;;5034206;28;20037;-84
2021/08/03 03:49:47;;;;;;;2.85;2.75;;;19.10;61.50;;;;;;5027671;28;20060;-84
2021/08/03 03:52:13;;;;;;;2.83;2.70;;;19.10;61.50;;;;;;5017431;28;20029;-85
2021/08/03 03:54:40;;;;;;;2.80;2.70;;;19.10;61.50;;;;;;5015834;28;20017;-84
2021/08/03 03:57:08;;;;;;;2.58;2.47;;;19.10;61.70;;;;;;5034141;28;20417;-84
2021/08/03 03:59:37;;;;;;;2.95;2.75;;;19.10;61.70;;;;;;5029387;28;20025;-84
2021/08/03 04:02:05;;;;;;;2.40;2.30;;;19.00;61.70;;;;;;5035181;28;20033;-84
2021/08/03 04:04:32;;;;;;;2.40;2.30;;;19.10;61.90;;;;;;5017299;28;20037;-84
2021/08/03 04:06:59;;;;;;;2.47;2.38;;;19.10;61.90;;;;;;5017520;28;20029;-85
2021/08/03 04:09:25;;;;;;;3.45;2.80;;;19.10;61.90;;;;;;5033652;28;20394;-84
2021/08/03 04:11:52;;;;;;;2.55;2.45;;;19.00;61.80;;;;;;5031836;28;20025;-86
2021/08/03 04:14:25;;;;;;;2.67;2.58;;;19.00;61.90;;;;;;5033875;28;20479;-84
2021/08/03 04:16:52;;;;;;;2.47;2.38;;;19.00;62.80;;;;;;5049477;28;20040;-85
2021/08/03 04:19:18;;;;;;;2.67;2.58;;;19.00;62.10;;;;;;5034707;28;20025;-84
2021/08/03 04:21:46;;;;;;;2.40;2.30;;;19.00;62.20;;;;;;5031915;28;20033;-85
2021/08/03 04:24:13;;;;;;;2.25;2.15;;;19.00;62.20;;;;;;5034845;28;20033;-84
2021/08/03 04:26:39;;;;;;;2.40;2.30;;;19.00;62.20;;;;;;5014769;28;20022;-85
2021/08/03 04:29:05;;;;;;;2.60;2.50;;;19.00;62.20;;;;;;5034474;28;20375;-85
2021/08/03 04:31:31;;;;;;;2.58;2.47;;;19.00;62.30;;;;;;5034008;28;20045;-85
2021/08/03 04:33:57;;;;;;;2.60;2.47;;;19.00;62.30;;;;;;5015704;28;20401;-84
2021/08/03 04:36:24;;;;;;;2.35;2.25;;;19.00;62.30;;;;;;5034653;28;20037;-84
2021/08/03 04:38:50;;;;;;;2.40;2.30;;;18.90;62.40;;;;;;5031571;28;20033;-84
2021/08/03 04:41:16;;;;;;;2.58;2.47;;;18.90;62.50;;;;;;5016768;28;20501;-84
2021/08/03 04:43:42;;;;;;;2.70;2.60;;;18.90;62.60;;;;;;5035032;28;20049;-85
2021/08/03 04:46:09;;;;;;;3.08;2.88;;;18.90;62.60;;;;;;5031951;28;20030;-84
2021/08/03 04:48:35;;;;;;;2.58;2.45;;;18.90;62.70;;;;;;5033263;28;20033;-84
2021/08/03 04:51:02;;;;;;;2.67;2.58;;;18.90;62.70;;;;;;5033120;28;20029;-85
2021/08/03 04:53:28;;;;;;;2.95;2.85;;;18.90;62.70;;;;;;5030303;28;20037;-84
2021/08/03 04:55:54;;;;;;;3.17;2.97;;;18.90;62.70;;;;;;5036576;28;20036;-84
2021/08/03 04:58:20;;;;;;;2.53;2.42;;;18.90;62.70;;;;;;5034100;28;20025;-84
2021/08/03 05:00:46;;;;;;;2.55;2.45;;;18.90;62.60;;;;;;5031117;28;20040;-86
2021/08/03 05:03:13;;;;;;;2.30;2.20;;;19.00;62.70;;;;;;5031335;28;20025;-84
2021/08/03 05:05:39;;;;;;;2.40;2.30;;;19.00;62.70;;;;;;5012205;28;20022;-83
2021/08/03 05:08:06;;;;;;;2.67;2.47;;;19.00;62.70;;;;;;5051748;28;20078;-84
2021/08/03 05:10:32;;;;;;;2.67;2.58;;;19.10;62.60;;;;;;5033042;28;20036;-84
2021/08/03 05:12:58;;;;;;;2.55;2.45;;;19.10;62.60;;;;;;5035238;28;20048;-83
2021/08/03 05:15:24;;;;;;;2.53;2.42;;;19.10;62.60;;;;;;5037263;28;20394;-84
2021/08/03 05:17:50;;;;;;;2.58;2.47;;;19.10;62.60;;;;;;5034787;28;20517;-85
2021/08/03 05:20:17;;;;;;;2.60;2.50;;;19.10;62.60;;;;;;5035692;28;20406;-85
2021/08/03 05:22:43;;;;;;;2.33;2.22;;;19.20;62.60;;;;;;5038555;28;20036;-84
2021/08/03 05:25:10;;;;;;;2.47;2.38;;;19.10;62.50;;;;;;5035422;28;20390;-84
2021/08/03 05:27:36;;;;;;;2.53;2.42;;;19.20;62.60;;;;;;5036015;28;20025;-85
2021/08/03 05:30:02;;;;;;;2.53;2.42;;;19.20;62.60;;;;;;5035642;28;20033;-80
2021/08/03 05:32:28;;;;;;;2.42;2.33;;;19.20;62.60;;;;;;5034144;28;20045;-83
2021/08/03 05:34:55;;;;;;;2.72;2.63;;;19.20;62.70;;;;;;5039280;28;20033;-84
2021/08/03 05:37:21;;;;;;;2.47;2.33;;;19.20;62.70;;;;;;5037301;28;20021;-85
2021/08/03 05:39:47;;;;;;;2.92;2.75;;;19.20;62.70;;;;;;5036609;28;20504;-84
2021/08/03 05:42:13;;;;;;;3.05;2.65;;;19.20;62.70;;;;;;5046887;28;20025;-84
2021/08/03 05:44:39;;;;;;;3.03;2.70;;;19.20;62.70;;;;;;5032962;28;20474;-84
2021/08/03 05:47:05;;;;;;;2.60;2.50;;;19.20;62.70;;;;;;5038486;28;20036;-84
2021/08/03 05:49:31;;;;;;;3.28;2.97;;;19.20;62.90;;;;;;5037046;28;20029;-85
2021/08/03 05:51:57;;;;;;;2.70;2.60;;;19.10;62.90;;;;;;5035788;28;20029;-84
2021/08/03 05:54:23;;;;;;;2.70;2.60;;;19.10;63.00;;;;;;5036895;28;20470;-85
2021/08/03 05:56:49;;;;;;;2.90;2.80;;;19.10;63.00;;;;;;5033716;28;20026;-85
2021/08/03 05:59:16;;;;;;;2.83;2.72;;;19.10;63.00;;;;;;5036805;28;20034;-84
2021/08/03 06:01:42;;;;;;;2.55;2.45;;;19.10;63.00;;;;;;5036177;28;20029;-84
2021/08/03 06:04:08;;;;;;;2.70;2.60;;;19.10;63.10;;;;;;5036673;28;20040;-85
2021/08/03 06:06:38;;;;;;;2.92;2.83;;;19.10;63.00;;;;;;5035795;28;20040;-84
2021/08/03 06:09:05;;;;;;;2.80;2.70;;;19.10;63.10;;;;;;5033439;28;20033;-85
2021/08/03 06:11:31;;;;;;;3.00;2.90;;;19.10;63.00;;;;;;5031730;28;20300;-85
2021/08/03 06:13:57;;;;;;;2.80;2.70;;;19.10;63.00;;;;;;5036497;28;20033;-84
2021/08/03 06:16:24;;;;;;;3.05;2.95;;;19.10;63.00;;;;;;5018520;28;20030;-84
2021/08/03 06:18:51;;;;;;;3.03;2.92;;;19.10;63.00;;;;;;5017820;28;20025;-85
2021/08/03 06:21:17;;;;;;;4.40;4.20;;;19.10;62.90;;;;;;5035452;28;20041;-84
2021/08/03 06:23:44;;;;;;;3.92;3.72;;;19.10;62.90;;;;;;5030919;28;20037;-84
2021/08/03 06:26:10;;;;;;;5.32;5.13;;;19.10;62.80;;;;;;5035839;28;20048;-84
2021/08/03 06:28:36;;;;;;;5.50;5.20;;;19.10;62.80;;;;;;5052207;28;20033;-84
2021/08/03 06:31:03;;;;;;;5.50;5.10;;;19.10;62.70;;;;;;5034256;28;20033;-85
2021/08/03 06:33:29;;;;;;;3.70;3.50;;;19.10;62.70;;;;;;5018658;28;20049;-85
2021/08/03 06:35:55;;;;;;;4.43;4.22;;;19.10;62.60;;;;;;5032730;28;20036;-85
2021/08/03 06:38:21;;;;;;;4.35;4.15;;;19.20;62.60;;;;;;5017106;28;20030;-83
2021/08/03 06:40:53;;;;;;;3.10;2.90;;;19.20;62.50;;;;;;5037451;28;20378;-84
2021/08/03 06:43:27;;;;;;;3.20;3.10;;;19.20;62.40;;;;;;5036011;28;20506;-84
2021/08/03 06:46:12;;;;;;;2.90;2.80;;;19.20;62.30;;;;;;5035580;28;20056;-85
2021/08/03 06:49:00;;;;;;;3.50;3.33;;;19.20;62.20;;;;;;5034833;28;20022;-84
2021/08/03 06:51:31;;;;;;;3.90;3.20;;;19.20;62.20;;;;;;5034895;28;20033;-84
2021/08/03 06:53:57;;;;;;;3.00;2.90;;;19.20;62.20;;;;;;5032429;28;20044;-85
2021/08/03 06:56:24;;;;;;;3.13;3.03;;;19.20;62.20;;;;;;4999930;28;20033;-84
2021/08/03 06:59:10;;;;;;;3.13;3.03;;;19.10;62.20;;;;;;5037445;28;20052;-84
2021/08/03 07:01:48;;;;;;;3.60;3.40;;;19.10;62.10;;;;;;5034541;28;20037;-85
2021/08/03 07:04:59;;;;;;;21.58;3.90;;;19.10;62.00;;;;;;5018426;28;20037;-85
2021/08/03 07:07:26;;;;;;;3.80;3.60;;;19.10;62.00;;;;;;5034225;28;20514;-84
2021/08/03 07:09:53;;;;;;;3.80;3.60;;;19.00;61.90;;;;;;5033890;28;20041;-85
2021/08/03 07:12:19;;;;;;;3.28;3.08;;;19.00;61.90;;;;;;5035586;28;20029;-85
2021/08/03 07:14:45;;;;;;;3.83;3.63;;;19.00;61.80;;;;;;5030625;28;20033;-85
2021/08/03 07:17:13;;;;;;;5.07;4.25;;;19.00;61.80;;;;;;5001594;28;20033;-86
2021/08/03 07:19:39;;;;;;;3.22;3.13;;;19.00;62.50;;;;;;5034600;28;20467;-85
2021/08/03 07:22:10;;;;;;;3.28;3.17;;;19.10;61.70;;;;;;5017750;28;20029;-84
2021/08/03 07:24:37;;;;;;;4.18;3.97;;;19.10;61.50;;;;;;5031852;28;20037;-84
2021/08/03 07:27:03;;;;;;;3.65;3.45;;;19.10;61.50;;;;;;5031513;28;20052;-85
2021/08/03 07:29:29;;;;;;;4.00;3.80;;;19.10;61.30;;;;;;5032048;28;20033;-85
2021/08/03 07:31:56;;;;;;;3.50;3.30;;;19.20;61.20;;;;;;5036444;28;20042;-85
2021/08/03 07:34:22;;;;;;;4.13;3.33;;;19.20;61.20;;;;;;5033381;28;20509;-85
2021/08/03 07:36:48;;;;;;;3.50;3.30;;;19.10;61.00;;;;;;5033690;28;20040;-85
2021/08/03 07:39:14;;;;;;;3.45;3.25;;;19.20;61.00;;;;;;5033689;28;20042;-84
2021/08/03 07:41:40;;;;;;;3.35;3.25;;;19.20;61.00;;;;;;5013324;28;20026;-86
2021/08/03 07:44:06;;;;;;;3.75;3.55;;;19.20;61.00;;;;;;5035387;28;20042;-84
2021/08/03 07:46:33;;;;;;;3.08;2.97;;;19.20;60.90;;;;;;5017008;28;20029;-85
2021/08/03 07:49:00;;;;;;;3.70;3.50;;;19.20;60.90;;;;;;5033761;28;20033;-85
2021/08/03 07:51:26;;;;;;;3.90;3.70;;;19.20;60.80;;;;;;5033761;28;20489;-84
2021/08/03 07:53:52;;;;;;;4.05;3.85;;;19.20;60.70;;;;;;5030758;28;20036;-85
2021/08/03 07:56:19;;;;;;;3.67;3.47;;;19.20;60.60;;;;;;5034276;28;20390;-84
2021/08/03 07:58:45;;;;;;;3.85;3.65;;;19.30;60.60;;;;;;5048917;28;20033;-84
2021/08/03 08:01:11;;;;;;;4.00;3.80;;;19.30;60.50;;;;;;5033916;28;20040;-85
2021/08/03 08:03:37;;;;;;;3.97;3.78;;;19.30;60.40;;;;;;5034088;28;20029;-85
2021/08/03 08:06:04;;;;;;;4.30;4.10;;;19.40;60.30;;;;;;5032356;28;20029;-85
2021/08/03 08:08:30;;;;;;;4.80;4.60;;;19.40;60.20;;;;;;5031487;28;20033;-85
2021/08/03 08:10:56;;;;;;;4.38;4.18;;;19.40;60.10;;;;;;5050179;28;20048;-85
2021/08/03 08:13:22;;;;;;;5.80;5.50;;;19.50;60.00;;;;;;5034719;28;20059;-85
2021/08/03 08:15:48;;;;;;;6.18;5.88;;;19.50;59.90;;;;;;5016745;28;20486;-85
2021/08/03 08:18:15;;;;;;;4.68;4.47;;;19.60;59.90;;;;;;5033110;28;20389;-85
2021/08/03 08:20:42;;;;;;;6.35;5.97;;;19.60;59.70;;;;;;5030198;28;20026;-85
2021/08/03 08:23:09;;;;;;;5.90;5.60;;;19.70;59.70;;;;;;5036281;28;20029;-85
2021/08/03 08:25:35;;;;;;;5.22;4.95;;;19.80;59.60;;;;;;5033126;28;20041;-85
2021/08/03 08:28:01;;;;;;;6.30;6.00;;;19.80;59.50;;;;;;5033326;28;20021;-85
2021/08/03 08:30:27;;;;;;;6.28;5.97;;;19.90;59.50;;;;;;5032911;28;20048;-85
2021/08/03 08:32:54;;;;;;;5.72;5.43;;;19.90;59.40;;;;;;5029420;28;20046;-85
2021/08/03 08:35:20;;;;;;;4.47;4.28;;;19.90;59.40;;;;;;5032251;28;20032;-85
2021/08/03 08:37:46;;;;;;;4.43;4.22;;;19.90;59.40;;;;;;5035818;28;20025;-85
2021/08/03 08:40:13;;;;;;;4.13;3.92;;;19.90;59.40;;;;;;5034514;28;20395;-85
2021/08/03 08:42:39;;;;;;;4.10;3.90;;;19.90;59.50;;;;;;5034651;28;20025;-85
2021/08/03 08:45:06;;;;;;;4.57;4.38;;;19.90;59.60;;;;;;5030555;28;20148;-87
2021/08/03 08:47:32;;;;;;;4.45;4.25;;;19.80;59.60;;;;;;5033620;28;20026;-86
2021/08/03 08:50:05;;;;;;;4.60;3.40;;;19.80;59.70;;;;;;5038847;28;20034;-85
2021/08/03 08:52:33;;;;;;;4.30;4.00;;;19.70;59.70;;;;;;5021022;28;20060;-83
2021/08/03 08:55:00;;;;;;;3.80;3.60;;;19.70;59.70;;;;;;5035495;28;20026;-85
2021/08/03 08:57:26;;;;;;;4.93;4.72;;;19.70;60.40;;;;;;5036877;28;20092;-84
2021/08/03 08:59:52;;;;;;;6.32;6.03;;;19.60;59.70;;;;;;5034006;28;20470;-86
2021/08/03 09:02:39;;;;;;;3.85;3.65;;;19.60;59.70;;;;;;5035674;28;20044;-86
2021/08/03 09:05:06;;;;;;;3.95;3.72;;;19.60;59.70;;;;;;5037905;28;20061;-86
2021/08/03 09:07:48;;;;;;;3.33;3.13;;;19.60;59.70;;;;;;5038293;28;20025;-85
2021/08/03 09:10:37;;;;;;;;;;;19.70;59.70;;;;;;5037239;28;20025;-86
2021/08/03 09:13:14;;;;;;;3.05;2.95;;;19.70;59.70;;;;;;5029960;28;19905;-86
2021/08/03 09:15:59;;;;;;;3.13;3.03;;;19.70;59.70;;;;;;5037273;28;20030;-86
2021/08/03 09:18:39;;;;;;;3.25;3.08;;;19.60;59.70;;;;;;5037720;28;20025;-86
2021/08/03 09:21:05;;;;;;;3.05;2.95;;;19.60;59.80;;;;;;5019301;28;20052;-86
2021/08/03 09:23:46;;;;;;;3.30;3.20;;;19.60;60.00;;;;;;5034572;28;20503;-85
2021/08/03 09:26:12;;;;;;;3.20;3.10;;;19.60;59.90;;;;;;5050988;28;20397;-86
2021/08/03 09:29:02;;;;;;;3.22;3.03;;;19.60;59.90;;;;;;5052079;28;20025;-86
2021/08/03 09:31:29;;;;;;;3.15;3.05;;;19.60;60.10;;;;;;5037387;28;20044;-86
2021/08/03 09:33:56;;;;;;;3.15;3.00;;;19.50;60.10;;;;;;5023033;28;20501;-85
2021/08/03 09:36:55;;;;;;;2.95;2.85;;;19.50;60.10;;;;;;5036238;28;20044;-82
2021/08/03 09:39:43;;;;;;;4.43;4.22;;;19.50;60.20;;;;;;4978129;28;20046;-85
2021/08/03 09:42:18;;;;;;;4.13;3.83;;;19.50;60.20;;;;;;4988606;28;20042;-85
2021/08/03 09:44:48;;;;;;;3.92;3.72;;;19.50;60.20;;;;;;4957180;28;20035;-85
2021/08/03 09:47:14;;;;;;;3.90;3.70;;;19.50;60.20;;;;;;4975911;28;20506;-86
2021/08/03 09:49:48;;;;;;;4.10;3.90;;;19.50;60.20;;;;;;4959698;28;20042;-85
2021/08/03 09:52:15;;;;;;;3.80;3.60;;;19.50;60.20;;;;;;4955113;28;20058;-85
2021/08/03 09:54:41;;;;;;;3.80;3.60;;;19.60;60.30;;;;;;4955092;28;20047;-86
2021/08/03 09:57:23;;;;;;;3.10;3.00;;;19.60;60.30;;;;;;4975993;28;20038;-86
2021/08/03 09:59:50;;;;;;;3.45;3.25;;;19.70;60.40;;;;;;4988447;28;20086;-85
2021/08/03 10:02:26;;;;;;;3.67;3.47;;;19.70;60.40;;;;;;4958742;28;20034;-86
2021/08/03 10:04:54;;;;;;;3.58;3.38;;;19.70;60.40;;;;;;4990720;28;20039;-86
2021/08/03 10:07:20;;;;;;;6.30;3.78;;;19.70;60.50;;;;;;4993391;28;20035;-86
2021/08/03 10:09:48;;;;;;;3.25;3.15;;;19.70;60.60;;;;;;4974178;28;20038;-86
2021/08/03 10:12:15;;;;;;;3.35;3.15;;;19.60;60.80;;;;;;4976386;28;20053;-87
2021/08/03 10:14:41;;;;;;;2.72;2.63;;;19.60;60.80;;;;;;4981455;28;20045;-86
2021/08/03 10:17:10;;;;;;;2.65;2.55;;;19.60;61.00;;;;;;5044683;28;20029;-86
2021/08/03 10:19:37;;;;;;;3.08;2.88;;;19.60;61.10;;;;;;5034243;28;20030;-86
2021/08/03 10:22:06;;;;;;;3.33;3.15;;;19.60;61.10;;;;;;5043427;28;20033;-85
2021/08/03 10:24:37;;;;;;;3.40;3.10;;;19.70;61.20;;;;;;5043625;28;20020;-85
2021/08/03 10:27:06;;;;;;;2.97;2.88;;;19.70;61.20;;;;;;5017868;28;20469;-86
2021/08/03 10:29:33;;;;;;;4.15;3.08;;;19.70;61.10;;;;;;5032872;28;20037;-86
2021/08/03 10:31:59;;;;;;;3.28;3.08;;;19.80;61.20;;;;;;5036251;28;20052;-85
2021/08/03 10:34:43;;;;;;;3.00;2.90;;;19.80;61.10;;;;;;5036273;28;20044;-85
2021/08/03 10:37:10;;;;;;;3.10;3.00;;;19.90;61.20;;;;;;5036064;28;20051;-85
2021/08/03 10:39:52;;;;;;;2.70;2.60;;;20.00;61.10;;;;;;5033932;28;20025;-85
2021/08/03 10:42:20;;;;;;;3.05;2.90;;;20.00;61.00;;;;;;5046673;28;20036;-85
2021/08/03 10:44:57;;;;;;;2.67;2.58;;;20.10;60.90;;;;;;5031255;28;20048;-86
2021/08/03 10:47:33;;;;;;;3.00;2.90;;;20.20;60.80;;;;;;5031760;28;20037;-86
2021/08/03 10:50:20;;;;;;;3.22;3.03;;;20.30;60.70;;;;;;5036813;28;20378;-86
2021/08/03 10:52:46;;;;;;;2.95;2.80;;;20.40;60.60;;;;;;5022529;28;20052;-87
2021/08/03 10:55:34;;;;;;;3.88;3.67;;;20.60;60.40;;;;;;5035870;28;20032;-85
2021/08/03 10:58:19;;;;;;;3.88;3.67;;;20.80;60.20;;;;;;5035885;28;20036;-86
2021/08/03 11:00:48;;;;;;;3.85;3.65;;;21.00;59.90;;;;;;5035039;28;20052;-85
2021/08/03 11:03:35;;;;;;;4.68;4.38;;;21.10;59.70;;;;;;5034556;28;20021;-86
2021/08/03 11:06:06;;;;;;;3.60;3.30;;;21.20;59.70;;;;;;5046947;28;20041;-86
2021/08/03 11:08:45;;;;;;;3.00;2.90;;;21.30;59.60;;;;;;5032081;28;20034;-86
2021/08/03 11:11:21;;;;;;;3.33;3.20;;;21.30;59.60;;;;;;5044183;28;20025;-84
2021/08/03 11:13:56;;;;;;;2.95;2.85;;;21.30;59.60;;;;;;5033495;28;20042;-86
2021/08/03 11:16:22;;;;;;;3.58;3.38;;;21.30;59.60;;;;;;5034790;28;20033;-86
2021/08/03 11:18:55;;;;;;;3.30;3.20;;;21.30;59.70;;;;;;5035453;28;20378;-87
2021/08/03 11:21:25;;;;;;;3.40;3.20;;;21.30;59.80;;;;;;5035392;28;20029;-86
2021/08/03 11:23:58;;;;;;;2.88;2.78;;;21.20;59.90;;;;;;5031398;28;20036;-86
2021/08/03 11:26:39;;;;;;;3.10;3.00;;;21.20;60.00;;;;;;5031929;28;20045;-86
2021/08/03 11:29:12;;;;;;;3.30;3.10;;;21.10;60.20;;;;;;5051744;28;20025;-86
2021/08/03 11:31:48;;;;;;;3.42;3.25;;;21.00;60.40;;;;;;5017878;28;20044;-86
2021/08/03 11:34:19;;;;;;;3.00;2.90;;;20.90;60.50;;;;;;5035188;28;20034;-84
2021/08/03 11:37:13;;;;;;;5.63;5.32;;;20.80;60.60;;;;;;5035154;28;20029;-86
2021/08/03 11:39:39;;;;;;;3.90;3.70;;;20.80;60.80;;;;;;5033383;28;20034;-86
2021/08/03 11:42:06;;;;;;;4.82;4.53;;;20.80;60.70;;;;;;5032752;28;20033;-87
2021/08/03 11:44:32;;;;;;;5.28;4.97;;;20.80;60.80;;;;;;5029290;28;20038;-87
2021/08/03 11:47:04;;;;;;;5.45;5.20;;;20.80;60.80;;;;;;5035270;28;20041;-86
2021/08/03 11:49:41;;;;;;;3.78;3.58;;;20.80;60.80;;;;;;5033498;28;20045;-86
2021/08/03 11:52:09;;;;;;;3.25;3.05;;;20.90;60.80;;;;;;5035159;28;20029;-86
2021/08/03 11:54:35;;;;;;;3.85;3.65;;;20.90;60.70;;;;;;5035166;28;20021;-87
2021/08/03 11:57:01;;;;;;;4.28;4.07;;;20.80;60.70;;;;;;5031158;28;20044;-86
2021/08/03 11:59:30;;;;;;;3.30;3.20;;;20.90;60.70;;;;;;5045577;28;20036;-87
2021/08/03 12:01:56;;;;;;;3.20;3.10;;;20.90;60.60;;;;;;5036324;28;20040;-85
2021/08/03 12:04:23;;;;;;;3.20;3.00;;;21.10;60.50;;;;;;5017311;28;20041;-85
2021/08/03 12:06:50;;;;;;;4.68;4.35;;;21.10;60.30;;;;;;5032830;28;20079;-86
2021/08/03 12:09:20;;;;;;;6.25;5.95;;;21.20;60.00;;;;;;5031974;28;20032;-86
2021/08/03 12:11:59;;;;;;;5.80;5.50;;;21.30;60.00;;;;;;5030022;28;20382;-86
2021/08/03 12:14:32;;;;;;;4.60;4.40;;;21.40;59.80;;;;;;5030898;28;20390;-85
2021/08/03 12:16:58;;;;;;;4.75;4.45;;;21.40;59.80;;;;;;5033743;28;20041;-86
2021/08/03 12:19:31;;;;;;;3.63;3.42;;;21.40;59.70;;;;;;5033480;28;20502;-85
2021/08/03 12:21:58;;;;;;;4.70;4.50;;;21.50;59.60;;;;;;5019578;28;20029;-86
2021/08/03 12:24:24;;;;;;;3.85;3.65;;;21.50;59.40;;;;;;5038667;28;20037;-86
2021/08/03 12:27:08;;;;;;;4.57;4.38;;;21.60;59.40;;;;;;5034471;28;20042;-86
2021/08/03 12:29:34;;;;;;;3.40;3.20;;;21.60;59.30;;;;;;5034978;28;20025;-86
2021/08/03 12:32:01;;;;;;;3.88;3.67;;;21.60;59.40;;;;;;5040023;28;20049;-86
2021/08/03 12:34:33;;;;;;;4.57;4.38;;;21.60;59.40;;;;;;5036482;28;20048;-86
2021/08/03 12:36:59;;;;;;;3.40;3.30;;;21.60;59.40;;;;;;5039597;28;20029;-85
2021/08/03 12:39:41;;;;;;;4.35;4.15;;;21.70;59.40;;;;;;5047598;28;20041;-86
2021/08/03 12:42:10;;;;;;;5.50;5.20;;;21.70;59.30;;;;;;5021580;28;20040;-85
2021/08/03 12:44:40;;;;;;;5.43;5.13;;;21.80;59.20;;;;;;5000883;28;20061;-85
2021/08/03 12:47:16;;;;;;;4.55;4.30;;;21.80;59.10;;;;;;5050871;28;20033;-86
2021/08/03 12:49:47;;;;;;;5.63;5.32;;;21.90;59.40;;;;;;5037887;28;20033;-86
2021/08/03 12:52:24;;;;;;;4.28;4.07;;;21.90;59.00;;;;;;5038275;28;20029;-86
2021/08/03 12:55:10;;;;;;;3.88;3.67;;;22.00;58.90;;;;;;5038032;28;20028;-86
2021/08/03 12:57:56;;;;;;;3.60;3.40;;;22.00;58.80;;;;;;5037816;28;20045;-85
2021/08/03 13:00:25;;;;;;;3.83;3.60;;;22.00;58.70;;;;;;5035185;28;20037;-85